Time;durP1;ratioP1;P1;durP2;ratioP2;P2;SDS_P1;SDS_P2;PMS_P1;PMS_P2;Temp;Humidity;BMP_temperature;BMP_pressure;BME280_temperature;BME280_humidity;BME280_pressure;Samples;Min_cycle;Max_cycle;Signal;HPM_P1;HPM_P2
2023/07/01 00:00:12;;;;;;;5.70;3.80;;;;;;;19.97;64.30;96027.69;108997;1273;22544;-83
2023/07/01 00:03:04;;;;;;;5.80;3.40;;;;;;;19.95;64.29;96028.71;108991;1273;22601;-82
2023/07/01 00:05:36;;;;;;;4.60;3.60;;;;;;;19.94;64.40;96029.86;109001;1271;37679;-82
2023/07/01 00:08:07;;;;;;;5.40;3.70;;;;;;;19.94;64.52;96027.64;108958;1273;22514;-82
2023/07/01 00:10:39;;;;;;;6.90;3.70;;;;;;;19.93;64.55;96026.08;109025;1267;22526;-82
2023/07/01 00:13:10;;;;;;;6.40;4.00;;;;;;;19.91;64.70;96028.73;108951;1271;22511;-83
2023/07/01 00:15:42;;;;;;;5.90;3.50;;;;;;;19.89;64.73;96026.61;109016;1271;64029;-82
2023/07/01 00:18:13;;;;;;;4.80;3.90;;;;;;;19.89;64.78;96027.76;109043;1271;22601;-82
2023/07/01 00:20:44;;;;;;;7.20;4.00;;;;;;;19.88;65.03;96033.58;109059;1271;22522;-82
2023/07/01 00:23:16;;;;;;;4.50;3.70;;;;;;;19.87;64.99;96032.80;109063;1264;23465;-82
2023/07/01 00:25:47;;;;;;;5.50;3.80;;;;;;;19.88;65.16;96034.66;109007;1268;22518;-82
2023/07/01 00:28:18;;;;;;;5.80;3.80;;;;;;;19.83;65.08;96033.39;108990;1265;25482;-82
2023/07/01 00:30:49;;;;;;;5.10;4.00;;;;;;;19.74;65.40;96026.20;109003;1270;22518;-82
2023/07/01 00:33:21;;;;;;;5.40;3.70;;;;;;;19.64;65.62;96028.44;108952;1265;22561;-83
2023/07/01 00:35:52;;;;;;;5.40;4.00;;;;;;;19.60;65.67;96026.81;109032;1272;37133;-82
2023/07/01 00:38:23;;;;;;;4.70;3.80;;;;;;;19.58;65.80;96028.61;108976;1272;22628;-82
2023/07/01 00:40:55;;;;;;;6.90;4.30;;;;;;;19.51;65.87;96021.83;108981;1265;22531;-83
2023/07/01 00:43:26;;;;;;;5.50;4.10;;;;;;;19.48;65.85;96024.06;108972;1265;25040;-83
2023/07/01 00:45:58;;;;;;;6.00;4.00;;;;;;;19.42;65.78;96019.92;108963;1269;48046;-82
2023/07/01 00:48:30;;;;;;;6.40;4.10;;;;;;;19.38;65.93;96016.84;108947;1273;22514;-82
2023/07/01 00:51:01;;;;;;;6.10;3.60;;;;;;;19.38;66.23;96014.30;108979;1273;22524;-83
2023/07/01 00:53:33;;;;;;;6.80;4.20;;;;;;;19.38;66.52;96011.61;108974;1269;22508;-82
2023/07/01 00:56:04;;;;;;;6.00;4.20;;;;;;;19.34;66.57;96009.83;109000;1271;23285;-83
2023/07/01 00:58:35;;;;;;;5.40;4.00;;;;;;;19.25;66.84;96007.48;108990;1271;22508;-82
2023/07/01 01:01:13;;;;;;;5.40;4.40;;;;;;;19.16;67.01;96001.81;109007;1269;25314;-83
2023/07/01 01:03:48;;;;;;;6.00;3.90;;;;;;;19.10;67.31;95999.11;108965;1273;22536;-83
2023/07/01 01:06:36;;;;;;;6.10;4.30;;;;;;;19.07;67.42;95996.77;108998;1271;52917;-82
2023/07/01 01:09:13;;;;;;;5.60;4.40;;;;;;;19.09;67.69;95990.13;109045;1269;24129;-82
2023/07/01 01:11:47;;;;;;;7.20;4.50;;;;;;;19.13;67.77;95985.45;109002;1271;22522;-82
2023/07/01 01:14:20;;;;;;;7.40;4.50;;;;;;;19.15;67.90;95985.29;109052;1271;22548;-82
2023/07/01 01:16:52;;;;;;;6.30;4.40;;;;;;;19.16;68.07;95980.41;109024;1266;37691;-83
2023/07/01 01:19:36;;;;;;;6.50;4.20;;;;;;;19.16;68.14;95977.54;108938;1273;22602;-83
2023/07/01 01:22:14;;;;;;;8.70;4.40;;;;;;;19.14;68.19;95971.21;108986;1273;22522;-83
2023/07/01 01:24:50;;;;;;;6.50;4.70;;;;;;;19.13;68.11;95969.39;109010;1271;22591;-83
2023/07/01 01:27:26;;;;;;;9.70;5.20;;;;;;;19.08;68.11;95968.30;108975;1271;23921;-83
2023/07/01 01:29:57;;;;;;;8.00;4.90;;;;;;;19.02;68.04;95963.26;108969;1269;22620;-83
2023/07/01 01:32:29;;;;;;;7.80;4.50;;;;;;;19.00;68.45;95961.58;108968;1273;22678;-83
2023/07/01 01:35:00;;;;;;;5.90;4.30;;;;;;;19.02;68.56;95962.10;109001;1271;22521;-83
2023/07/01 01:37:39;;;;;;;6.20;4.10;;;;;;;19.02;68.56;95959.81;108884;1272;37233;-82
2023/07/01 01:40:15;;;;;;;6.40;4.10;;;;;;;19.03;68.73;95958.36;108988;1272;22518;-83
2023/07/01 01:42:47;;;;;;;6.70;4.60;;;;;;;19.03;68.75;95957.66;108976;1272;22611;-82
2023/07/01 01:45:21;;;;;;;5.90;4.30;;;;;;;19.00;68.87;95957.66;108950;1267;22532;-83
2023/07/01 01:47:54;;;;;;;5.00;4.40;;;;;;;18.97;69.06;95954.21;108965;1266;23268;-83
2023/07/01 01:50:28;;;;;;;4.90;3.80;;;;;;;18.92;69.34;95952.88;108979;1273;22527;-83
2023/07/01 01:53:01;;;;;;;5.50;4.00;;;;;;;18.78;69.33;95950.71;108923;1272;22538;-83
2023/07/01 01:55:35;;;;;;;4.30;3.80;;;;;;;18.69;69.70;95948.93;108994;1265;57426;-82
2023/07/01 01:58:06;;;;;;;5.40;4.00;;;;;;;18.64;69.86;95949.36;109052;1271;22515;-82
2023/07/01 02:00:37;;;;;;;5.30;4.00;;;;;;;18.66;70.05;95952.71;109030;1266;22524;-83
2023/07/01 02:03:09;;;;;;;4.80;3.90;;;;;;;18.67;70.17;95952.27;109035;1271;22518;-82
2023/07/01 02:05:40;;;;;;;5.50;4.10;;;;;;;18.66;70.20;95950.56;108996;1271;53455;-83
2023/07/01 02:08:11;;;;;;;5.00;4.00;;;;;;;18.69;70.47;95950.32;108962;1272;22660;-83
2023/07/01 02:10:42;;;;;;;5.40;4.30;;;;;;;18.70;70.67;95948.50;108975;1272;22547;-83
2023/07/01 02:13:13;;;;;;;4.90;3.90;;;;;;;18.71;70.75;95949.36;109026;1266;22562;-82
2023/07/01 02:15:47;;;;;;;5.50;4.30;;;;;;;18.66;70.63;95948.55;108980;1273;57761;-82
2023/07/01 02:18:18;;;;;;;4.70;4.00;;;;;;;18.58;70.67;95943.90;108935;1273;22582;-82
2023/07/01 02:20:49;;;;;;;8.20;4.50;;;;;;;18.54;70.79;95945.70;108975;1273;25277;-83
2023/07/01 02:23:20;;;;;;;4.30;4.00;;;;;;;18.51;70.81;95948.40;108984;1273;22538;-82
2023/07/01 02:25:51;;;;;;;6.70;4.60;;;;;;;18.48;70.95;95948.23;108985;1273;30969;-82
2023/07/01 02:28:22;;;;;;;9.20;4.50;;;;;;;18.53;71.29;95942.21;108980;1272;22519;-82
2023/07/01 02:30:54;;;;;;;4.20;3.80;;;;;;;18.54;71.54;95936.20;108970;1272;22540;-83
2023/07/01 02:33:25;;;;;;;6.00;4.60;;;;;;;18.54;71.75;95936.11;108973;1272;22529;-82
2023/07/01 02:35:56;;;;;;;4.60;4.00;;;;;;;18.54;72.15;95933.59;109097;1271;51506;-83
2023/07/01 02:38:27;;;;;;;6.10;4.20;;;;;;;18.53;72.26;95931.33;109256;1271;22524;-82
2023/07/01 02:40:58;;;;;;;4.80;3.70;;;;;;;18.51;72.55;95930.13;109209;1271;22596;-82
2023/07/01 02:43:30;;;;;;;4.90;3.80;;;;;;;18.46;72.51;95928.45;109213;1271;22515;-82
2023/07/01 02:46:01;;;;;;;6.50;4.10;;;;;;;18.43;72.63;95921.79;109016;1272;37345;-82
2023/07/01 02:48:32;;;;;;;4.50;3.60;;;;;;;18.44;72.87;95918.44;108989;1269;22526;-83
2023/07/01 02:51:04;;;;;;;4.80;4.30;;;;;;;18.45;72.95;95914.04;108958;1273;22597;-82
2023/07/01 02:53:35;;;;;;;5.00;4.30;;;;;;;18.44;73.04;95916.92;108959;1270;25339;-82
2023/07/01 02:56:06;;;;;;;5.80;4.80;;;;;;;18.45;73.17;95914.34;108994;1272;34326;-83
2023/07/01 02:58:40;;;;;;;5.40;4.30;;;;;;;18.46;73.35;95908.38;109053;1270;22527;-81
2023/07/01 03:01:14;;;;;;;5.70;4.20;;;;;;;18.36;73.37;95912.83;109039;1272;22518;-82
2023/07/01 03:03:49;;;;;;;7.00;4.70;;;;;;;18.29;73.39;95916.84;109044;1272;22543;-83
2023/07/01 03:06:23;;;;;;;5.60;4.50;;;;;;;18.24;73.40;95915.34;108983;1271;153249;-83
2023/07/01 03:08:56;;;;;;;7.30;4.90;;;;;;;18.24;73.64;95915.81;109145;1265;25412;-83
2023/07/01 03:11:29;;;;;;;9.00;4.40;;;;;;;18.26;73.58;95916.91;109185;1271;27028;-83
2023/07/01 03:14:03;;;;;;;6.70;4.60;;;;;;;18.27;73.56;95917.17;109142;1269;22555;-83
2023/07/01 03:16:40;;;;;;;6.50;4.90;;;;;;;18.32;73.72;95922.91;109038;1269;36574;-83
2023/07/01 03:19:12;;;;;;;6.60;5.00;;;;;;;18.37;73.68;95922.73;109049;1270;22540;-83
2023/07/01 03:21:46;;;;;;;5.70;4.30;;;;;;;18.42;73.69;95927.13;109011;1272;22515;-83
2023/07/01 03:24:18;;;;;;;5.70;4.40;;;;;;;18.40;73.57;95924.70;109027;1265;25436;-81
2023/07/01 03:26:53;;;;;;;4.50;4.10;;;;;;;18.41;74.31;95922.59;109012;1272;46015;-81
2023/07/01 03:29:24;;;;;;;5.00;4.50;;;;;;;18.42;74.43;95923.23;109070;1271;26208;-81
2023/07/01 03:31:57;;;;;;;5.60;4.30;;;;;;;18.45;74.62;95925.70;109027;1273;22511;-83
2023/07/01 03:34:30;;;;;;;8.90;5.20;;;;;;;18.45;74.67;95929.14;109026;1273;22580;-81
2023/07/01 03:37:04;;;;;;;7.10;4.80;;;;;;;18.47;74.90;95931.64;109012;1269;42830;-80
2023/07/01 03:39:40;;;;;;;5.60;4.80;;;;;;;18.48;75.08;95926.37;109053;1269;22518;-81
2023/07/01 03:42:13;;;;;;;6.30;4.70;;;;;;;18.49;75.06;95925.55;109076;1265;25005;-81
2023/07/01 03:44:44;;;;;;;6.90;4.90;;;;;;;18.49;75.17;95929.72;109082;1265;22565;-82
2023/07/01 03:47:17;;;;;;;5.80;4.40;;;;;;;18.50;75.19;95933.48;108890;1273;107420;-82
2023/07/01 03:49:48;;;;;;;5.00;4.50;;;;;;;18.49;75.27;95931.23;109059;1269;26393;-82
2023/07/01 03:52:19;;;;;;;5.30;4.80;;;;;;;18.47;75.14;95931.66;109071;1273;25454;-82
2023/07/01 03:54:51;;;;;;;6.40;5.00;;;;;;;18.43;75.05;95931.63;109083;1272;24220;-82
2023/07/01 03:57:22;;;;;;;6.00;4.60;;;;;;;18.41;75.18;95935.48;108971;1272;49660;-81
2023/07/01 03:59:53;;;;;;;5.60;4.90;;;;;;;18.42;75.44;95934.73;109055;1273;24031;-81
2023/07/01 04:02:24;;;;;;;5.60;4.80;;;;;;;18.42;75.65;95938.93;109053;1272;22600;-82
2023/07/01 04:04:55;;;;;;;6.80;4.50;;;;;;;18.43;75.91;95941.64;109096;1272;22516;-81
2023/07/01 04:07:27;;;;;;;6.50;4.70;;;;;;;18.36;75.89;95939.73;109006;1271;37268;-81
2023/07/01 04:09:58;;;;;;;5.60;4.60;;;;;;;18.29;75.96;95941.09;109022;1272;25353;-81
2023/07/01 04:12:29;;;;;;;6.80;4.70;;;;;;;18.24;76.22;95943.22;109001;1269;22581;-81
2023/07/01 04:15:01;;;;;;;5.80;5.00;;;;;;;18.25;76.69;95943.81;108982;1267;22531;-81
2023/07/01 04:17:32;;;;;;;5.50;4.50;;;;;;;18.31;76.76;95938.98;108914;1272;59104;-81
2023/07/01 04:20:06;;;;;;;6.80;5.20;;;;;;;18.36;76.83;95939.88;109021;1267;22979;-81
2023/07/01 04:22:37;;;;;;;6.40;5.00;;;;;;;18.40;76.88;95939.91;108965;1270;24240;-81
2023/07/01 04:25:12;;;;;;;6.50;5.20;;;;;;;18.45;77.24;95938.35;109021;1268;22580;-81
2023/07/01 04:27:43;;;;;;;5.70;5.00;;;;;;;18.50;77.68;95939.08;109057;1272;24743;-81
2023/07/01 04:30:16;;;;;;;6.50;5.30;;;;;;;18.52;77.70;95941.81;109015;1267;22525;-81
2023/07/01 04:32:47;;;;;;;6.30;4.90;;;;;;;18.53;77.56;95940.22;108998;1271;22643;-82
2023/07/01 04:35:20;;;;;;;6.20;4.90;;;;;;;18.54;77.65;95940.41;108961;1251;26381;-82
2023/07/01 04:37:52;;;;;;;6.80;4.70;;;;;;;18.55;77.61;95934.36;109014;1271;24214;-82
2023/07/01 04:40:23;;;;;;;5.70;4.80;;;;;;;18.55;77.44;95937.67;109015;1273;22514;-81
2023/07/01 04:42:55;;;;;;;5.40;4.90;;;;;;;18.56;77.53;95939.46;108969;1272;22537;-82
2023/07/01 04:45:29;;;;;;;6.30;4.60;;;;;;;18.58;77.56;95938.06;108990;1270;25963;-82
2023/07/01 04:48:01;;;;;;;5.90;4.80;;;;;;;18.58;77.40;95937.11;109005;1249;22523;-82
2023/07/01 04:50:33;;;;;;;5.00;4.10;;;;;;;18.58;77.41;95941.29;108939;1272;23101;-82
2023/07/01 04:53:04;;;;;;;5.10;4.40;;;;;;;18.59;77.43;95940.77;109004;1267;22525;-82
2023/07/01 04:55:36;;;;;;;6.30;4.60;;;;;;;18.58;77.34;95940.50;108974;1270;30892;-82
2023/07/01 04:58:08;;;;;;;5.00;4.50;;;;;;;18.58;77.25;95939.96;108992;1272;22502;-82
2023/07/01 05:00:39;;;;;;;5.90;4.60;;;;;;;18.58;77.24;95941.60;108998;1265;22518;-82
2023/07/01 05:03:10;;;;;;;5.80;4.70;;;;;;;18.60;77.03;95944.77;109002;1273;22535;-82
2023/07/01 05:05:42;;;;;;;6.80;4.50;;;;;;;18.61;77.30;95941.90;108956;1273;39074;-82
2023/07/01 05:08:13;;;;;;;6.90;4.60;;;;;;;18.64;77.32;95945.61;108975;1270;22933;-81
2023/07/01 05:10:45;;;;;;;7.10;5.00;;;;;;;18.67;77.56;95942.59;109013;1273;22526;-82
2023/07/01 05:13:19;;;;;;;5.10;4.60;;;;;;;18.69;77.56;95941.50;108987;1265;22522;-82
2023/07/01 05:15:50;;;;;;;5.80;4.60;;;;;;;18.72;77.53;95943.48;108954;1272;61519;-81
2023/07/01 05:18:22;;;;;;;6.10;4.50;;;;;;;18.73;77.53;95945.73;108992;1267;22519;-82
2023/07/01 05:20:54;;;;;;;5.40;4.60;;;;;;;18.74;77.66;95947.55;108958;1270;23244;-81
2023/07/01 05:23:25;;;;;;;7.00;5.00;;;;;;;18.75;77.38;95948.86;109005;1267;25278;-82
2023/07/01 05:25:57;;;;;;;4.90;4.40;;;;;;;18.71;77.18;95948.90;108984;1271;28643;-82
2023/07/01 05:28:29;;;;;;;5.00;4.60;;;;;;;18.71;77.43;95947.91;109062;1264;22526;-82
2023/07/01 05:31:00;;;;;;;6.80;4.90;;;;;;;18.74;77.42;95954.36;109013;1271;22527;-82
2023/07/01 05:46:18;;;;;;;5.40;4.90;;;;;;;19.07;76.92;95962.90;106359;1295;558057;-81
2023/07/01 05:48:50;;;;;;;5.30;4.70;;;;;;;19.11;76.89;95968.61;108535;1276;272499;-81
2023/07/01 05:51:23;;;;;;;7.30;5.20;;;;;;;19.12;77.18;95970.01;108845;1273;22544;-81
2023/07/01 05:53:55;;;;;;;6.20;4.80;;;;;;;19.12;76.96;95969.98;108879;1276;22562;-81
2023/07/01 05:56:26;;;;;;;5.90;4.80;;;;;;;19.10;76.96;95970.71;109037;1274;22516;-81
2023/07/01 05:58:58;;;;;;;6.70;5.30;;;;;;;19.06;76.99;95973.09;108963;1273;22522;-81
2023/07/01 06:01:30;;;;;;;9.70;4.70;;;;;;;19.05;77.08;95972.77;108970;1273;25266;-81
2023/07/01 06:04:02;;;;;;;7.00;5.50;;;;;;;19.05;77.14;95973.14;108973;1272;52678;-81
2023/07/01 06:06:34;;;;;;;5.10;4.60;;;;;;;19.06;77.28;95974.17;109038;1272;22533;-81
2023/07/01 06:09:08;;;;;;;5.80;5.30;;;;;;;19.09;77.31;95974.92;109087;1272;25431;-81
2023/07/01 06:11:39;;;;;;;6.90;4.70;;;;;;;19.13;77.30;95977.24;109157;1272;22539;-80
2023/07/01 06:14:11;;;;;;;6.30;5.50;;;;;;;19.18;77.53;95976.16;108989;1272;46153;-83
2023/07/01 06:16:43;;;;;;;5.20;4.70;;;;;;;19.24;77.63;95978.35;109054;1269;22620;-84
2023/07/01 06:19:14;;;;;;;5.70;4.80;;;;;;;19.30;77.54;95980.25;109073;1269;24209;-84
2023/07/01 06:21:46;;;;;;;6.20;5.30;;;;;;;19.29;77.38;95987.00;109050;1269;25428;-84
2023/07/01 06:24:17;;;;;;;6.00;5.40;;;;;;;19.27;77.25;95990.88;109009;1269;24446;-84
2023/07/01 06:26:50;;;;;;;5.80;4.90;;;;;;;19.26;77.23;95988.52;109065;1269;22563;-84
2023/07/01 06:29:21;;;;;;;7.10;5.20;;;;;;;19.25;77.24;95990.28;109055;1269;25577;-84
2023/07/01 06:31:52;;;;;;;6.80;5.10;;;;;;;19.26;77.48;95991.67;109046;1272;22641;-84
2023/07/01 06:34:24;;;;;;;6.90;5.10;;;;;;;19.27;77.35;95993.59;108980;1272;48847;-84
2023/07/01 06:36:55;;;;;;;6.40;5.80;;;;;;;19.26;77.21;95988.83;109092;1272;22603;-84
2023/07/01 06:39:26;;;;;;;6.70;5.10;;;;;;;19.17;76.72;95988.39;109096;1267;22510;-84
2023/07/01 06:41:58;;;;;;;7.10;4.90;;;;;;;19.13;77.09;95990.45;109036;1269;22584;-84
2023/07/01 06:44:29;;;;;;;5.40;4.90;;;;;;;19.13;77.24;95992.37;109026;1267;62210;-84
2023/07/01 06:47:02;;;;;;;6.40;5.40;;;;;;;19.11;77.31;95991.02;109065;1272;22515;-84
2023/07/01 06:49:33;;;;;;;6.20;5.30;;;;;;;19.09;77.40;95991.89;109022;1270;22531;-84
2023/07/01 06:52:06;;;;;;;6.40;5.10;;;;;;;19.07;77.42;95992.37;109020;1269;25449;-84
2023/07/01 06:54:37;;;;;;;7.30;5.50;;;;;;;19.05;77.55;95988.17;109209;1269;36524;-84
2023/07/01 06:57:09;;;;;;;6.50;5.30;;;;;;;19.05;77.76;95989.17;109209;1269;22529;-84
2023/07/01 06:59:41;;;;;;;6.90;5.70;;;;;;;19.02;77.84;95988.67;109108;1272;22522;-82
2023/07/01 07:02:13;;;;;;;7.90;5.30;;;;;;;19.00;77.92;95986.08;109153;1269;23277;-83
2023/07/01 07:04:45;;;;;;;8.00;5.70;;;;;;;19.01;78.10;95987.09;109331;1271;41451;-83
2023/07/01 07:07:18;;;;;;;7.40;6.10;;;;;;;19.01;78.18;95982.25;109298;1267;22507;-83
2023/07/01 07:09:54;;;;;;;7.00;6.20;;;;;;;19.02;78.35;95984.36;109294;1267;22693;-84
2023/07/01 07:12:58;;;;;;;7.00;5.50;;;;;;;19.02;78.47;95984.91;109456;1272;22311;-85
2023/07/01 07:15:32;;;;;;;7.00;5.70;;;;;;;19.02;78.65;95979.98;109391;1272;42397;-85
2023/07/01 07:18:09;;;;;;;6.00;5.30;;;;;;;19.05;78.68;95976.75;109393;1272;23318;-84
2023/07/01 07:20:43;;;;;;;7.60;5.90;;;;;;;19.10;78.94;95981.54;109336;1272;24310;-84
2023/07/01 07:23:18;;;;;;;7.50;5.70;;;;;;;19.15;79.15;95981.15;109414;1272;22571;-84
2023/07/01 07:25:49;;;;;;;6.50;5.90;;;;;;;19.21;79.12;95980.82;109325;1269;68681;-83
2023/07/01 07:28:25;;;;;;;10.00;6.50;;;;;;;19.26;79.22;95979.91;109213;1272;22516;-83
2023/07/01 07:31:12;;;;;;;6.10;5.50;;;;;;;19.28;79.16;95978.70;109206;1272;22609;-85
2023/07/01 07:33:55;;;;;;;;;;;;;;;;;;;;;
2023/07/01 07:36:43;;;;;;;6.60;5.90;;;;;;;19.34;79.11;95974.81;109148;1269;23814;-84
2023/07/01 07:39:17;;;;;;;7.00;5.50;;;;;;;19.35;78.96;95973.52;109133;1272;22509;-85
2023/07/01 07:41:49;;;;;;;8.20;6.80;;;;;;;19.34;78.95;95968.74;109130;1266;22569;-84
2023/07/01 07:44:31;;;;;;;10.00;7.20;;;;;;;19.39;79.20;95966.85;109067;1272;69615;-84
2023/07/01 07:47:03;;;;;;;10.10;7.90;;;;;;;19.44;79.45;95968.23;109165;1267;24145;-84
2023/07/01 07:49:37;;;;;;;10.30;8.90;;;;;;;19.48;79.42;95969.08;109088;1272;22627;-84
2023/07/01 07:52:10;;;;;;;7.30;6.30;;;;;;;19.52;79.45;95967.45;109123;1267;22531;-82
2023/07/01 07:54:43;;;;;;;6.90;6.20;;;;;;;19.53;79.26;95966.80;109089;1272;45399;-84
2023/07/01 07:57:17;;;;;;;6.90;6.20;;;;;;;19.55;79.32;95966.69;109090;1272;22525;-85
2023/07/01 07:59:51;;;;;;;7.50;6.70;;;;;;;19.55;79.39;95961.63;109174;1270;22514;-86
2023/07/01 08:02:27;;;;;;;7.90;7.10;;;;;;;19.57;79.39;95970.91;109158;1273;22555;-86
2023/07/01 08:05:00;;;;;;;7.30;6.00;;;;;;;19.55;78.98;95971.76;109297;1272;63166;-85
2023/07/01 08:07:36;;;;;;;16.70;6.80;;;;;;;19.53;78.80;95972.85;109276;1267;23326;-83
2023/07/01 08:10:11;;;;;;;20.30;6.30;;;;;;;19.51;79.21;95974.13;109274;1267;23383;-82
2023/07/01 08:12:44;;;;;;;7.60;6.80;;;;;;;19.53;79.42;95979.30;109224;1267;22536;-82
2023/07/01 08:15:15;;;;;;;6.40;5.70;;;;;;;19.50;79.09;95979.09;109092;1266;43832;-82
2023/07/01 08:17:46;;;;;;;8.20;7.20;;;;;;;19.45;79.09;95976.92;109079;1272;22533;-79
2023/07/01 08:20:18;;;;;;;7.60;6.80;;;;;;;19.46;79.47;95975.78;109012;1267;22515;-86
2023/07/01 08:22:49;;;;;;;8.80;6.80;;;;;;;19.46;79.57;95980.10;109019;1272;22640;-86
2023/07/01 08:25:21;;;;;;;7.70;6.90;;;;;;;19.48;79.71;95979.59;109072;1267;22514;-83
2023/07/01 08:27:52;;;;;;;7.50;6.70;;;;;;;19.47;79.55;95978.79;109087;1267;25251;-80
2023/07/01 08:30:23;;;;;;;7.40;6.60;;;;;;;19.45;79.59;95975.85;108686;1273;22518;-77
2023/07/01 08:32:55;;;;;;;7.00;6.20;;;;;;;19.46;79.76;95973.55;109033;1266;22518;-77
2023/07/01 08:35:28;;;;;;;7.90;6.10;;;;;;;19.42;79.48;95974.08;108997;1265;26526;-77
2023/07/01 08:38:01;;;;;;;9.90;6.80;;;;;;;19.37;79.48;95974.27;109019;1273;22518;-79
2023/07/01 08:40:32;;;;;;;7.60;6.90;;;;;;;19.32;79.50;95979.22;109022;1273;22514;-80
2023/07/01 08:43:06;;;;;;;8.00;6.40;;;;;;;19.32;79.93;95980.31;109031;1268;25287;-80
2023/07/01 08:45:38;;;;;;;11.00;7.00;;;;;;;19.40;80.28;95981.38;109043;1273;24259;-80
2023/07/01 08:48:12;;;;;;;8.20;7.40;;;;;;;19.43;80.08;95981.48;108991;1272;22515;-80
2023/07/01 08:50:50;;;;;;;7.90;7.10;;;;;;;19.43;80.07;95981.26;109031;1266;22717;-78
2023/07/01 08:53:25;;;;;;;8.70;7.20;;;;;;;19.45;80.19;95976.46;109120;1273;22547;-77
2023/07/01 08:56:02;;;;;;;8.10;7.20;;;;;;;19.47;80.12;95975.27;109113;1266;22518;-77
2023/07/01 08:58:35;;;;;;;9.30;6.80;;;;;;;19.52;80.31;95976.90;109014;1269;22655;-77
2023/07/01 09:01:09;;;;;;;7.50;6.80;;;;;;;19.56;80.49;95976.11;108668;1269;22694;-77
2023/07/01 09:03:41;;;;;;;8.90;7.20;;;;;;;19.62;80.65;95976.31;108682;1269;22647;-78
2023/07/01 09:06:14;;;;;;;9.60;7.80;;;;;;;19.67;80.68;95973.02;108623;1273;24502;-77
2023/07/01 09:08:48;;;;;;;8.00;7.20;;;;;;;19.69;80.77;95972.14;109055;1269;22587;-77
2023/07/01 09:11:21;;;;;;;10.50;7.90;;;;;;;19.73;81.00;95972.70;109235;1271;22511;-77
2023/07/01 09:13:58;;;;;;;8.40;6.90;;;;;;;19.77;80.98;95972.02;109196;1273;22545;-77
2023/07/01 09:16:37;;;;;;;9.40;8.00;;;;;;;19.84;81.22;95968.18;109249;1273;22624;-77
2023/07/01 09:19:10;;;;;;;9.40;8.20;;;;;;;19.93;81.48;95966.19;109231;1272;22646;-78
2023/07/01 09:21:41;;;;;;;9.20;7.80;;;;;;;19.98;80.90;95960.84;109222;1272;22625;-77
2023/07/01 09:24:15;;;;;;;9.20;8.30;;;;;;;19.97;80.87;95959.50;109191;1272;25547;-80
2023/07/01 09:26:59;;;;;;;11.00;7.80;;;;;;;19.97;80.94;95960.58;109061;1267;26462;-79
2023/07/01 09:29:40;;;;;;;8.80;8.00;;;;;;;19.98;80.73;95959.23;109006;1267;22572;-80
2023/07/01 09:32:28;;;;;;;9.70;8.60;;;;;;;19.97;80.72;95957.12;109129;1272;23349;-80
2023/07/01 09:35:03;;;;;;;9.10;8.20;;;;;;;19.95;80.65;95955.23;109031;1266;61899;-86
2023/07/01 09:37:41;;;;;;;9.60;8.60;;;;;;;19.94;80.97;95952.15;109128;1269;22534;-85
2023/07/01 09:40:26;;;;;;;8.80;7.90;;;;;;;19.93;80.90;95950.29;109166;1273;22558;-86
2023/07/01 09:43:01;;;;;;;10.20;7.80;;;;;;;19.98;81.29;95948.09;109079;1274;22634;-89
2023/07/01 09:45:33;;;;;;;8.70;7.70;;;;;;;20.01;81.04;95944.14;108974;1267;110863;-89
2023/07/01 09:48:18;;;;;;;8.80;7.60;;;;;;;20.07;81.52;95942.17;109116;1275;22537;-91
2023/07/01 09:50:52;;;;;;;8.20;7.40;;;;;;;20.13;81.58;95943.15;109053;1273;22517;-85
2023/07/01 09:53:27;;;;;;;8.80;7.40;;;;;;;20.22;82.32;95938.38;109086;1267;23292;-87
2023/07/01 09:56:07;;;;;;;9.30;7.50;;;;;;;20.31;82.32;95938.70;109022;1267;112575;-86
2023/07/01 09:58:42;;;;;;;8.70;7.70;;;;;;;20.40;82.20;95936.58;109103;1271;25355;-86
2023/07/01 10:01:18;;;;;;;8.80;7.10;;;;;;;20.50;82.04;95934.23;109115;1269;22534;-86
2023/07/01 10:03:51;;;;;;;9.70;7.80;;;;;;;20.60;81.57;95932.40;109122;1269;22528;-87
2023/07/01 10:06:27;;;;;;;7.80;7.00;;;;;;;20.63;81.38;95924.84;109009;1267;182778;-83
2023/07/01 10:09:05;;;;;;;7.50;6.70;;;;;;;20.69;80.96;95924.70;109044;1274;22552;-79
2023/07/01 10:11:40;;;;;;;9.20;7.30;;;;;;;20.77;80.85;95917.66;108709;1270;23128;-79
2023/07/01 10:14:15;;;;;;;8.60;6.70;;;;;;;20.87;80.75;95917.75;108671;1267;27036;-79
2023/07/01 10:16:58;;;;;;;9.00;8.10;;;;;;;20.93;80.40;95917.92;108629;1267;22533;-79
2023/07/01 10:19:33;;;;;;;8.10;7.20;;;;;;;20.92;80.13;95916.90;108639;1267;22548;-76
2023/07/01 10:22:25;;;;;;;8.40;6.70;;;;;;;21.00;80.42;95912.95;108560;1257;22535;-79
2023/07/01 10:25:03;;;;;;;7.90;7.10;;;;;;;21.20;80.87;95906.09;108668;1274;49475;-79
2023/07/01 10:28:14;;;;;;;7.70;6.80;;;;;;;21.45;81.29;95901.98;108466;1266;23456;-79
2023/07/01 10:31:12;;;;;;;8.40;6.90;;;;;;;21.56;79.73;95900.77;109192;1273;22983;-79
2023/07/01 10:33:57;;;;;;;7.90;7.00;;;;;;;21.52;79.29;95898.08;109145;1274;22544;-79
2023/07/01 10:36:28;;;;;;;7.40;6.70;;;;;;;21.65;79.58;95895.08;109138;1274;23246;-80
2023/07/01 10:39:33;;;;;;;7.40;6.70;;;;;;;21.71;78.71;95894.31;109171;1260;25258;-79
2023/07/01 10:42:10;;;;;;;8.90;7.10;;;;;;;21.73;78.61;95891.33;109062;1273;22670;-79
2023/07/01 10:44:42;;;;;;;7.60;6.20;;;;;;;21.70;78.28;95886.29;109118;1267;22625;-79
2023/07/01 10:47:17;;;;;;;7.50;6.60;;;;;;;21.66;77.78;95885.05;109023;1267;22518;-79
2023/07/01 10:50:07;;;;;;;8.30;6.20;;;;;;;21.67;77.80;95878.98;109063;1267;22521;-79
2023/07/01 10:53:03;;;;;;;7.70;6.40;;;;;;;21.76;77.96;95879.95;109064;1271;22564;-77
2023/07/01 10:55:40;;;;;;;8.90;6.30;;;;;;;21.81;77.21;95878.08;109003;1273;23343;-77
2023/07/01 10:58:21;;;;;;;7.00;6.00;;;;;;;21.88;77.20;95873.15;108984;1274;22514;-77
2023/07/01 11:00:53;;;;;;;8.70;6.50;;;;;;;21.95;76.77;95871.36;109009;1269;22742;-77
2023/07/01 11:03:59;;;;;;;9.30;6.80;;;;;;;21.99;76.40;95868.02;108675;1274;23045;-77
2023/07/01 11:06:44;;;;;;;7.70;6.70;;;;;;;22.07;76.51;95861.17;109038;1257;25102;-76
2023/07/01 11:09:17;;;;;;;8.20;6.10;;;;;;;22.16;76.55;95860.44;109001;1273;22642;-79
2023/07/01 11:11:48;;;;;;;7.30;6.60;;;;;;;22.17;76.43;95859.44;108942;1273;22735;-79
2023/07/01 11:14:21;;;;;;;6.80;6.10;;;;;;;22.22;76.65;95855.70;108971;1266;26367;-79
2023/07/01 11:16:53;;;;;;;7.40;6.30;;;;;;;22.28;76.49;95853.23;109001;1265;24260;-79
2023/07/01 11:19:25;;;;;;;7.40;6.60;;;;;;;22.34;76.61;95851.64;108997;1269;22543;-80
2023/07/01 11:21:57;;;;;;;8.20;6.50;;;;;;;22.36;76.83;95850.65;109015;1266;22523;-79
2023/07/01 11:24:29;;;;;;;7.90;7.00;;;;;;;22.35;76.85;95844.86;108945;1269;25744;-79
2023/07/01 11:27:07;;;;;;;7.80;7.10;;;;;;;22.38;77.44;95846.06;108932;1266;22552;-80
2023/07/01 11:29:40;;;;;;;9.10;7.40;;;;;;;22.43;77.69;95848.27;109046;1267;22519;-79
2023/07/01 11:32:14;;;;;;;12.20;8.20;;;;;;;22.45;77.42;95850.36;108987;1272;22564;-79
2023/07/01 11:34:49;;;;;;;8.90;7.60;;;;;;;22.43;76.79;95848.27;108960;1271;26555;-80
2023/07/01 11:37:28;;;;;;;7.90;7.10;;;;;;;22.45;77.40;95846.27;108965;1270;22528;-79
2023/07/01 11:40:00;;;;;;;7.80;7.00;;;;;;;22.48;77.76;95844.44;108963;1266;22554;-79
2023/07/01 11:42:32;;;;;;;11.00;7.80;;;;;;;22.50;77.44;95842.75;109014;1260;22527;-79
2023/07/01 11:45:09;;;;;;;8.70;7.40;;;;;;;22.48;77.16;95836.65;108990;1266;58786;-79
2023/07/01 11:47:48;;;;;;;10.50;7.60;;;;;;;22.49;77.68;95837.20;108964;1267;22526;-79
2023/07/01 11:50:20;;;;;;;9.70;7.20;;;;;;;22.52;78.00;95835.06;108662;1273;22508;-79
2023/07/01 11:52:51;;;;;;;9.50;7.30;;;;;;;22.49;78.03;95837.65;109001;1273;22537;-80
2023/07/01 11:55:36;;;;;;;9.80;7.30;;;;;;;22.44;77.90;95844.19;108950;1273;58177;-80
2023/07/01 11:58:24;;;;;;;8.10;7.00;;;;;;;22.38;78.04;95848.38;109012;1273;24405;-79
2023/07/01 12:00:56;;;;;;;7.90;7.10;;;;;;;22.33;78.49;95849.78;109022;1273;26842;-80
2023/07/01 12:03:31;;;;;;;8.00;7.20;;;;;;;22.28;78.57;95850.91;109003;1273;22529;-80
2023/07/01 12:06:04;;;;;;;8.20;7.10;;;;;;;22.20;78.45;95855.61;108967;1273;52992;-80
2023/07/01 12:08:52;;;;;;;10.10;8.00;;;;;;;22.12;78.65;95855.23;108988;1273;22558;-79
2023/07/01 12:11:25;;;;;;;9.00;7.60;;;;;;;22.04;78.68;95854.59;108979;1272;22517;-79